Time;durP1;ratioP1;P1;durP2;ratioP2;P2;SDS_P1;SDS_P2;PMS_P1;PMS_P2;Temp;Humidity;BMP_temperature;BMP_pressure;BME280_temperature;BME280_humidity;BME280_pressure;Samples;Min_cycle;Max_cycle;Signal;HPM_P1;HPM_P2
2023/04/22 00:01:14;;;;;;;8.20;7.07;;;14.10;91.20;;;;;;6181267;23;20189;-75
2023/04/22 00:03:41;;;;;;;7.63;6.80;;;14.10;91.20;;;;;;6182463;23;20200;-75
2023/04/22 00:06:09;;;;;;;12.52;7.50;;;14.20;91.20;;;;;;6182463;23;20209;-76
2023/04/22 00:08:36;;;;;;;9.60;7.72;;;14.10;91.20;;;;;;6182123;23;20185;-75
2023/04/22 00:11:03;;;;;;;10.82;7.47;;;14.20;91.20;;;;;;6182064;23;20193;-75
2023/04/22 00:13:30;;;;;;;10.35;7.97;;;14.10;91.20;;;;;;6182800;23;20208;-75
2023/04/22 00:15:56;;;;;;;8.02;7.13;;;14.10;91.40;;;;;;6182736;23;20172;-74
2023/04/22 00:18:23;;;;;;;8.45;7.63;;;14.00;91.40;;;;;;6181875;23;20185;-75
2023/04/22 00:20:50;;;;;;;7.80;6.75;;;14.00;91.40;;;;;;6181049;23;20230;-75
2023/04/22 00:23:18;;;;;;;11.23;8.77;;;14.00;91.40;;;;;;6181415;23;20172;-76
2023/04/22 00:25:45;;;;;;;11.95;7.97;;;14.00;91.40;;;;;;6182911;23;20266;-75
2023/04/22 00:28:12;;;;;;;7.95;7.15;;;14.00;91.40;;;;;;6182230;23;20191;-75
2023/04/22 00:30:38;;;;;;;9.80;7.75;;;14.00;91.40;;;;;;6182139;23;20259;-75
2023/04/22 00:33:05;;;;;;;9.93;7.43;;;14.00;91.40;;;;;;6182350;23;20269;-76
2023/04/22 00:35:32;;;;;;;9.60;7.80;;;14.00;91.50;;;;;;6182087;23;20167;-75
2023/04/22 00:38:01;;;;;;;8.30;7.50;;;13.90;91.50;;;;;;6182133;23;20192;-75
2023/04/22 00:40:29;;;;;;;8.65;7.38;;;14.00;91.40;;;;;;6181649;23;20145;-75
2023/04/22 00:42:58;;;;;;;7.65;6.60;;;14.00;91.50;;;;;;6181747;23;20176;-75
2023/04/22 00:45:26;;;;;;;7.85;7.05;;;14.00;91.50;;;;;;6181725;23;20153;-75
2023/04/22 00:47:53;;;;;;;9.70;6.95;;;14.00;91.40;;;;;;6181484;23;20193;-76
2023/04/22 00:50:20;;;;;;;10.65;7.63;;;13.90;91.40;;;;;;6181087;23;20232;-75
2023/04/22 00:52:47;;;;;;;8.57;7.68;;;13.90;91.40;;;;;;6180435;23;20196;-76
2023/04/22 00:55:14;;;;;;;8.85;7.95;;;13.90;91.40;;;;;;6178152;23;20192;-75
2023/04/22 00:57:43;;;;;;;10.25;7.75;;;13.90;91.40;;;;;;6170583;23;20240;-75
2023/04/22 01:00:13;;;;;;;9.48;7.07;;;13.90;91.40;;;;;;6180716;23;20176;-77
2023/04/22 01:02:40;;;;;;;9.40;8.43;;;13.90;91.50;;;;;;6193374;23;20219;-77
2023/04/22 01:05:08;;;;;;;9.73;7.50;;;13.90;91.40;;;;;;6185086;23;20750;-76
2023/04/22 01:07:36;;;;;;;9.30;7.57;;;13.90;91.40;;;;;;6186306;23;20176;-77
2023/04/22 01:10:05;;;;;;;10.27;7.30;;;13.90;91.40;;;;;;6184913;23;20181;-77
2023/04/22 01:12:32;;;;;;;12.85;8.23;;;13.90;91.70;;;;;;6186261;23;20160;-76
2023/04/22 01:15:02;;;;;;;14.75;9.50;;;13.90;91.40;;;;;;6185897;23;20188;-76
2023/04/22 01:17:30;;;;;;;7.80;7.00;;;13.90;91.50;;;;;;6186337;23;20197;-77
2023/04/22 01:19:58;;;;;;;8.52;7.60;;;13.90;91.50;;;;;;6193161;23;20161;-75
2023/04/22 01:22:28;;;;;;;8.63;7.72;;;13.90;91.60;;;;;;6196266;23;20167;-76
2023/04/22 01:24:58;;;;;;;11.02;9.93;;;13.90;91.60;;;;;;6186031;23;20528;-75
2023/04/22 01:27:26;;;;;;;9.45;8.50;;;13.90;91.60;;;;;;6186428;23;20267;-77
2023/04/22 01:29:53;;;;;;;9.23;8.07;;;13.90;91.60;;;;;;6185119;23;20184;-76
2023/04/22 01:32:20;;;;;;;10.02;7.82;;;13.90;91.60;;;;;;6185736;23;20239;-76
2023/04/22 01:34:49;;;;;;;8.88;7.03;;;13.90;91.60;;;;;;6191052;23;20200;-77
2023/04/22 01:37:17;;;;;;;11.52;8.20;;;13.90;91.60;;;;;;6186355;23;20675;-76
2023/04/22 01:39:44;;;;;;;10.10;7.75;;;13.90;91.70;;;;;;6185008;23;20240;-76
2023/04/22 01:42:13;;;;;;;9.10;7.78;;;13.90;91.70;;;;;;6183651;23;20737;-77
2023/04/22 01:44:40;;;;;;;11.70;8.80;;;13.90;91.70;;;;;;6185429;23;20232;-77
2023/04/22 01:47:07;;;;;;;10.60;8.98;;;13.80;91.70;;;;;;6185583;23;20171;-77
2023/04/22 01:49:34;;;;;;;10.20;8.25;;;13.80;91.80;;;;;;6184905;23;20160;-76
2023/04/22 01:52:01;;;;;;;11.15;8.63;;;13.80;91.80;;;;;;6185484;23;20160;-77
2023/04/22 01:54:28;;;;;;;7.90;7.13;;;13.80;91.90;;;;;;6185627;23;20200;-77
2023/04/22 01:56:57;;;;;;;10.20;8.30;;;13.80;92.00;;;;;;6185830;23;20165;-77
2023/04/22 01:59:25;;;;;;;9.00;8.10;;;13.80;91.90;;;;;;6185784;23;20168;-76
2023/04/22 02:01:52;;;;;;;11.90;9.70;;;13.80;91.90;;;;;;6184724;23;20187;-76
2023/04/22 02:04:19;;;;;;;10.60;9.05;;;13.90;92.00;;;;;;6194474;23;20200;-78
2023/04/22 02:06:46;;;;;;;9.20;8.30;;;13.90;92.00;;;;;;6197603;23;20200;-77
2023/04/22 02:09:13;;;;;;;8.82;8.02;;;13.90;91.90;;;;;;6200582;23;20188;-76
2023/04/22 02:11:40;;;;;;;8.90;8.00;;;13.90;92.00;;;;;;6200576;23;20192;-78
2023/04/22 02:14:06;;;;;;;10.50;9.30;;;13.80;92.00;;;;;;6199005;23;20204;-77
2023/04/22 02:16:35;;;;;;;11.23;9.98;;;13.80;92.10;;;;;;6190945;23;20239;-75
2023/04/22 02:19:01;;;;;;;8.63;7.82;;;13.70;92.20;;;;;;6188803;23;20168;-78
2023/04/22 02:21:31;;;;;;;9.93;8.93;;;13.70;92.30;;;;;;6191154;23;20231;-76
2023/04/22 02:24:02;;;;;;;11.25;9.98;;;13.70;92.40;;;;;;6189352;23;20218;-78
2023/04/22 02:26:29;;;;;;;17.83;10.25;;;13.60;92.50;;;;;;6190848;23;20673;-77
2023/04/22 02:28:56;;;;;;;15.23;11.65;;;13.60;92.60;;;;;;6188983;23;20511;-77
2023/04/22 02:31:23;;;;;;;10.70;9.60;;;13.60;92.70;;;;;;6187190;23;20180;-77
2023/04/22 02:33:51;;;;;;;11.65;10.45;;;13.50;92.90;;;;;;6187172;23;20165;-77
2023/04/22 02:36:18;;;;;;;13.18;10.27;;;13.50;93.00;;;;;;6188411;23;20161;-79
2023/04/22 02:38:49;;;;;;;10.13;9.13;;;13.50;93.10;;;;;;6186472;23;20175;-78
2023/04/22 02:41:16;;;;;;;10.98;9.88;;;13.40;93.20;;;;;;6186010;23;20167;-75
2023/04/22 02:43:45;;;;;;;14.15;9.45;;;13.40;93.30;;;;;;6185494;23;20196;-77
2023/04/22 02:46:12;;;;;;;11.68;9.57;;;13.40;93.40;;;;;;6185103;23;20667;-77
2023/04/22 02:48:39;;;;;;;10.65;9.57;;;13.30;93.50;;;;;;6185302;23;20599;-78
2023/04/22 02:51:08;;;;;;;13.48;9.52;;;13.20;93.60;;;;;;6184902;23;20644;-77
2023/04/22 02:53:35;;;;;;;10.45;9.30;;;13.20;93.70;;;;;;6186381;23;20260;-78
2023/04/22 02:56:01;;;;;;;11.93;10.32;;;13.20;93.80;;;;;;6187304;23;20167;-74
2023/04/22 02:58:29;;;;;;;18.25;10.10;;;13.10;93.90;;;;;;6187324;23;20251;-76
2023/04/22 03:00:56;;;;;;;12.75;9.85;;;13.10;94.00;;;;;;6186629;23;20261;-76
2023/04/22 03:03:23;;;;;;;12.27;10.20;;;13.00;94.10;;;;;;6187166;23;20210;-77
2023/04/22 03:05:50;;;;;;;11.40;10.15;;;13.00;94.20;;;;;;6186945;23;20203;-78
2023/04/22 03:08:19;;;;;;;10.50;9.50;;;13.00;94.20;;;;;;6186616;23;20226;-78
2023/04/22 03:10:46;;;;;;;11.30;10.07;;;12.90;94.30;;;;;;6186454;23;20274;-76
2023/04/22 03:13:13;;;;;;;12.05;10.82;;;12.90;94.40;;;;;;6186498;23;20205;-76
2023/04/22 03:15:40;;;;;;;15.50;9.70;;;12.90;94.60;;;;;;6187067;23;20277;-76
2023/04/22 03:18:07;;;;;;;17.60;10.98;;;12.80;94.60;;;;;;6192528;23;20197;-76
2023/04/22 03:20:34;;;;;;;11.98;9.90;;;12.80;94.70;;;;;;6187430;23;20164;-76
2023/04/22 03:23:02;;;;;;;14.07;9.68;;;12.70;94.70;;;;;;6187621;23;20505;-77
2023/04/22 03:25:30;;;;;;;10.60;8.95;;;12.90;94.80;;;;;;6186805;23;20207;-76
2023/04/22 03:27:57;;;;;;;10.10;9.10;;;12.80;94.80;;;;;;6187101;23;20200;-76
2023/04/22 03:30:24;;;;;;;11.73;9.90;;;12.80;94.80;;;;;;6186281;23;20223;-75
2023/04/22 03:32:52;;;;;;;14.65;9.27;;;12.80;94.80;;;;;;6186243;23;20193;-77
2023/04/22 03:35:19;;;;;;;10.25;9.35;;;12.80;94.80;;;;;;6186972;23;20214;-76
2023/04/22 03:37:46;;;;;;;11.65;10.45;;;12.70;94.80;;;;;;6186879;23;20242;-76
2023/04/22 03:40:13;;;;;;;10.60;9.50;;;12.70;94.90;;;;;;6185896;23;20195;-77
2023/04/22 03:42:41;;;;;;;13.43;9.90;;;12.70;95.00;;;;;;6186067;23;20210;-76
2023/04/22 03:45:09;;;;;;;11.65;9.70;;;12.70;95.00;;;;;;6186148;23;20273;-76
2023/04/22 03:47:36;;;;;;;16.40;10.93;;;12.70;95.00;;;;;;6186716;23;20497;-77
2023/04/22 03:50:04;;;;;;;11.35;10.00;;;12.80;95.10;;;;;;6185717;23;20210;-78
2023/04/22 03:52:31;;;;;;;11.88;10.20;;;12.70;95.00;;;;;;6186771;23;20556;-78
2023/04/22 03:54:58;;;;;;;11.55;10.35;;;12.70;95.00;;;;;;6186312;23;20279;-75
2023/04/22 03:57:24;;;;;;;10.63;9.55;;;12.80;95.00;;;;;;6186539;23;20243;-75
2023/04/22 03:59:53;;;;;;;11.73;9.70;;;12.80;94.90;;;;;;6187898;23;20175;-76
2023/04/22 04:02:20;;;;;;;11.75;10.50;;;12.90;95.00;;;;;;6185701;23;20184;-76
2023/04/22 04:04:47;;;;;;;14.23;10.38;;;12.80;94.90;;;;;;6185942;23;20242;-76
2023/04/22 04:07:13;;;;;;;13.73;11.15;;;12.80;94.90;;;;;;6186057;23;20544;-76
2023/04/22 04:09:41;;;;;;;10.68;9.63;;;12.90;95.00;;;;;;6185517;23;20223;-76
2023/04/22 04:12:08;;;;;;;12.02;10.07;;;12.80;94.90;;;;;;6186194;23;20576;-76
2023/04/22 04:14:36;;;;;;;12.02;9.95;;;12.80;94.90;;;;;;6186323;23;20210;-76
2023/04/22 04:17:04;;;;;;;12.45;11.15;;;12.90;95.00;;;;;;6186013;23;20192;-75
2023/04/22 04:19:31;;;;;;;16.95;11.32;;;12.90;95.00;;;;;;6184952;23;20196;-76
2023/04/22 04:21:58;;;;;;;12.77;10.32;;;12.90;95.00;;;;;;6186585;23;20537;-76
2023/04/22 04:24:25;;;;;;;10.63;9.63;;;12.90;94.90;;;;;;6186631;23;20199;-77
2023/04/22 04:26:52;;;;;;;17.02;10.98;;;12.90;94.90;;;;;;6186397;23;20164;-77
2023/04/22 04:29:20;;;;;;;12.05;10.30;;;12.90;95.10;;;;;;6185873;23;20171;-77
2023/04/22 04:31:46;;;;;;;11.60;10.40;;;12.90;95.00;;;;;;6185888;23;20191;-76
2023/04/22 04:34:15;;;;;;;13.20;10.98;;;12.90;95.20;;;;;;6185711;23;20682;-76
2023/04/22 04:36:42;;;;;;;13.57;11.93;;;12.80;95.20;;;;;;6186134;23;20243;-77
2023/04/22 04:39:11;;;;;;;15.20;11.65;;;12.70;95.20;;;;;;6186565;23;20243;-77
2023/04/22 04:41:40;;;;;;;11.23;10.20;;;12.70;95.30;;;;;;6185491;23;20173;-77
2023/04/22 04:44:06;;;;;;;11.73;10.55;;;12.70;95.30;;;;;;6186235;23;20567;-77
2023/04/22 04:46:36;;;;;;;12.02;10.10;;;12.70;95.40;;;;;;6186220;23;20269;-76
2023/04/22 04:49:04;;;;;;;12.98;11.48;;;12.70;95.40;;;;;;6185646;23;20229;-76
2023/04/22 04:51:33;;;;;;;15.63;11.15;;;12.70;95.50;;;;;;6185485;23;20264;-76
2023/04/22 04:54:00;;;;;;;12.40;10.70;;;12.80;95.50;;;;;;6185845;23;20238;-76
2023/04/22 04:56:26;;;;;;;14.65;10.57;;;12.80;95.50;;;;;;6186453;23;20250;-75
2023/04/22 04:58:53;;;;;;;11.52;10.15;;;12.90;95.50;;;;;;6188792;23;20235;-76
2023/04/22 05:01:20;;;;;;;11.52;10.32;;;12.90;95.30;;;;;;6189545;23;20188;-77
2023/04/22 05:03:47;;;;;;;11.98;10.07;;;13.00;95.40;;;;;;6185734;23;20168;-77
2023/04/22 05:06:15;;;;;;;11.57;10.43;;;12.90;95.30;;;;;;6186223;23;20196;-76
2023/04/22 05:08:43;;;;;;;12.73;10.45;;;13.00;95.30;;;;;;6185662;23;20246;-75
2023/04/22 05:11:10;;;;;;;14.15;10.90;;;13.10;95.20;;;;;;6184989;23;20582;-74
2023/04/22 05:13:37;;;;;;;12.68;9.93;;;13.30;95.10;;;;;;6185755;23;20161;-76
2023/04/22 05:16:04;;;;;;;11.40;10.25;;;13.60;94.70;;;;;;6185934;23;20162;-76
2023/04/22 05:18:32;;;;;;;11.43;9.80;;;14.20;94.10;;;;;;6185767;23;20192;-77
2023/04/22 05:20:59;;;;;;;14.73;9.52;;;15.00;93.20;;;;;;6185437;23;20165;-77
2023/04/22 05:23:28;;;;;;;10.63;9.60;;;15.80;92.20;;;;;;6185029;23;20168;-78
2023/04/22 05:25:57;;;;;;;10.27;9.27;;;16.70;91.00;;;;;;6185537;23;20789;-76
2023/04/22 05:28:24;;;;;;;10.47;9.27;;;17.40;89.90;;;;;;6185677;23;20415;-75
2023/04/22 05:30:51;;;;;;;14.13;9.73;;;17.90;87.80;;;;;;6185054;23;20414;-77
2023/04/22 05:33:17;;;;;;;13.10;10.67;;;18.20;87.00;;;;;;6185294;23;20425;-76
2023/04/22 05:35:44;;;;;;;10.33;9.37;;;18.50;85.90;;;;;;6186897;23;20821;-77
2023/04/22 05:38:11;;;;;;;11.43;9.23;;;18.50;84.40;;;;;;6185393;23;20396;-74
2023/04/22 05:40:39;;;;;;;15.90;10.13;;;18.40;84.60;;;;;;6183113;23;20388;-76
2023/04/22 05:43:07;;;;;;;11.30;10.10;;;18.40;84.10;;;;;;6184356;23;20951;-76
2023/04/22 05:45:34;;;;;;;11.90;10.53;;;18.50;84.50;;;;;;6185317;23;20756;-75
2023/04/22 05:48:01;;;;;;;12.50;10.03;;;18.40;84.60;;;;;;6185195;23;20478;-76
2023/04/22 05:50:28;;;;;;;16.87;10.33;;;18.20;84.70;;;;;;6183956;23;20423;-75
2023/04/22 05:52:55;;;;;;;12.80;10.60;;;18.00;85.00;;;;;;6185128;23;20438;-75
2023/04/22 05:55:22;;;;;;;12.97;10.30;;;18.30;85.10;;;;;;6184459;23;20507;-75
2023/04/22 05:57:50;;;;;;;12.53;9.53;;;18.80;84.50;;;;;;6185582;23;20400;-73
2023/04/22 06:00:19;;;;;;;11.80;10.60;;;18.80;83.90;;;;;;6183933;23;20431;-72
2023/04/22 06:02:45;;;;;;;10.93;9.93;;;19.10;83.40;;;;;;6185178;23;20388;-72
2023/04/22 06:05:12;;;;;;;10.17;9.17;;;19.20;82.50;;;;;;6185110;23;20462;-74
2023/04/22 06:07:40;;;;;;;14.17;10.73;;;19.70;82.30;;;;;;6184948;23;20486;-73
2023/04/22 06:10:08;;;;;;;11.20;9.30;;;20.10;81.00;;;;;;6184246;23;20394;-74
2023/04/22 06:12:35;;;;;;;14.00;10.60;;;20.20;80.50;;;;;;6185140;23;20509;-73
2023/04/22 06:15:02;;;;;;;13.73;9.03;;;20.10;80.50;;;;;;6185046;23;20435;-73
2023/04/22 06:17:31;;;;;;;11.43;9.20;;;20.10;80.40;;;;;;6184633;23;20939;-73
2023/04/22 06:19:57;;;;;;;11.10;9.70;;;19.80;80.70;;;;;;6184561;23;20434;-73
2023/04/22 06:22:24;;;;;;;10.57;9.50;;;20.00;80.90;;;;;;6184264;23;20467;-73
2023/04/22 06:24:51;;;;;;;11.10;10.00;;;19.60;81.20;;;;;;6184959;23;20459;-75
2023/04/22 06:27:18;;;;;;;11.17;9.43;;;19.50;81.70;;;;;;6185153;23;20450;-74
2023/04/22 06:29:45;;;;;;;11.57;10.37;;;19.10;82.40;;;;;;6186217;23;20474;-73
2023/04/22 06:32:12;;;;;;;10.80;9.80;;;18.90;83.30;;;;;;6186136;23;20871;-74
2023/04/22 06:34:41;;;;;;;11.47;9.67;;;18.50;84.20;;;;;;6186877;23;20506;-73
2023/04/22 06:37:09;;;;;;;10.30;9.27;;;18.10;85.30;;;;;;6187201;23;20395;-74
2023/04/22 06:39:36;;;;;;;11.47;10.27;;;18.20;85.80;;;;;;6185950;23;20420;-75
2023/04/22 06:42:03;;;;;;;12.07;10.67;;;18.40;85.40;;;;;;6187281;23;20479;-72
2023/04/22 06:44:31;;;;;;;12.47;9.93;;;18.20;86.00;;;;;;6191953;23;20451;-73
2023/04/22 06:46:58;;;;;;;16.80;10.93;;;18.10;86.00;;;;;;6187154;23;20392;-75
2023/04/22 06:49:25;;;;;;;11.93;10.73;;;17.60;87.00;;;;;;6186837;23;20478;-74
2023/04/22 06:51:53;;;;;;;12.00;10.73;;;17.30;87.80;;;;;;6185593;23;20460;-73
2023/04/22 06:54:20;;;;;;;15.73;10.90;;;17.30;88.90;;;;;;6187007;23;20506;-73
2023/04/22 06:56:47;;;;;;;15.17;11.27;;;17.20;89.50;;;;;;6186175;23;20475;-74
2023/04/22 06:59:14;;;;;;;12.90;11.23;;;17.30;89.60;;;;;;6186771;23;20424;-73
2023/04/22 07:01:41;;;;;;;11.23;10.00;;;17.30;89.60;;;;;;6185857;23;20494;-74
2023/04/22 07:04:08;;;;;;;13.77;10.80;;;17.10;89.70;;;;;;6185942;23;20952;-75
2023/04/22 07:06:36;;;;;;;10.73;9.63;;;17.20;90.00;;;;;;6186676;23;20427;-73
2023/04/22 07:09:04;;;;;;;11.43;10.43;;;17.30;90.00;;;;;;6186711;23;20470;-72
2023/04/22 07:11:31;;;;;;;20.40;10.63;;;17.50;89.80;;;;;;6185940;23;20426;-74
2023/04/22 07:13:58;;;;;;;15.20;10.33;;;17.50;89.20;;;;;;6186338;23;20459;-74
2023/04/22 07:16:26;;;;;;;15.00;10.40;;;17.70;89.50;;;;;;6187463;23;20489;-72
2023/04/22 07:18:53;;;;;;;11.23;10.10;;;17.90;89.20;;;;;;6186815;23;20403;-72
2023/04/22 07:21:20;;;;;;;11.93;9.57;;;19.30;87.60;;;;;;6185766;23;20854;-74
2023/04/22 07:23:47;;;;;;;11.03;9.40;;;21.00;84.10;;;;;;6186310;23;20392;-72
2023/04/22 07:26:16;;;;;;;11.00;9.80;;;22.70;79.90;;;;;;6186072;23;20927;-73
2023/04/22 07:28:42;;;;;;;13.20;10.60;;;23.80;76.80;;;;;;6186133;23;20695;-74
2023/04/22 07:31:09;;;;;;;13.10;9.93;;;24.00;75.10;;;;;;6186120;23;20476;-75
2023/04/22 07:33:36;;;;;;;12.33;10.27;;;23.00;75.30;;;;;;6186220;23;20434;-72
2023/04/22 07:36:04;;;;;;;13.60;9.63;;;22.40;76.90;;;;;;6186288;23;20505;-72
2023/04/22 07:38:30;;;;;;;11.40;10.40;;;21.50;78.50;;;;;;6185682;23;20396;-72
2023/04/22 07:40:58;;;;;;;14.07;9.10;;;20.90;80.20;;;;;;6185375;23;20743;-71
2023/04/22 07:43:27;;;;;;;10.33;9.33;;;21.00;81.40;;;;;;6186232;23;20712;-75
2023/04/22 07:45:55;;;;;;;14.57;9.80;;;22.20;79.80;;;;;;6186557;23;20795;-74
2023/04/22 07:48:21;;;;;;;11.43;9.20;;;23.30;77.70;;;;;;6186369;23;20470;-75
2023/04/22 07:50:48;;;;;;;11.07;9.37;;;23.60;75.90;;;;;;6181971;23;20396;-75
2023/04/22 07:53:16;;;;;;;10.80;9.70;;;24.10;75.20;;;;;;6185841;23;20434;-75
2023/04/22 07:55:43;;;;;;;10.50;9.40;;;24.40;73.50;;;;;;6185812;23;20438;-74
2023/04/22 07:58:10;;;;;;;10.90;9.80;;;24.70;72.90;;;;;;6186635;23;20392;-73
2023/04/22 08:00:38;;;;;;;10.53;9.00;;;24.70;73.30;;;;;;6184800;23;20443;-73
2023/04/22 08:03:06;;;;;;;9.10;8.30;;;24.60;73.70;;;;;;6185490;23;20430;-73
2023/04/22 08:05:32;;;;;;;9.73;8.27;;;24.40;73.20;;;;;;6185249;23;20439;-74
2023/04/22 08:08:00;;;;;;;9.20;8.40;;;24.20;73.60;;;;;;6185557;23;20442;-73
2023/04/22 08:10:27;;;;;;;10.13;8.63;;;24.40;73.70;;;;;;6184310;23;20941;-74
2023/04/22 08:12:54;;;;;;;10.30;9.23;;;24.20;73.50;;;;;;6183648;23;20438;-76
2023/04/22 08:15:20;;;;;;;10.13;8.50;;;24.10;74.40;;;;;;6184138;23;20428;-74
2023/04/22 08:17:49;;;;;;;13.13;9.67;;;24.20;74.70;;;;;;6183943;23;20392;-71
2023/04/22 08:20:16;;;;;;;15.90;9.30;;;24.30;74.10;;;;;;6183339;23;20400;-74
2023/04/22 08:22:44;;;;;;;10.87;9.70;;;24.20;73.70;;;;;;6183055;23;20396;-73
2023/04/22 08:25:11;;;;;;;9.33;8.30;;;23.90;74.00;;;;;;6183607;23;20428;-72
2023/04/22 08:27:38;;;;;;;9.23;7.97;;;24.30;74.20;;;;;;6185795;23;20427;-72
2023/04/22 08:30:06;;;;;;;10.43;8.30;;;24.90;73.40;;;;;;6185014;23;20387;-73
2023/04/22 08:32:34;;;;;;;8.90;8.10;;;25.50;71.30;;;;;;6185495;23;20423;-74
2023/04/22 08:35:02;;;;;;;9.10;8.30;;;26.30;69.90;;;;;;6185070;23;20427;-72
2023/04/22 08:37:30;;;;;;;9.40;8.43;;;26.40;68.90;;;;;;6185392;23;20423;-73
2023/04/22 08:39:57;;;;;;;8.40;7.50;;;26.30;68.80;;;;;;6185143;23;20399;-72
2023/04/22 08:42:24;;;;;;;8.50;7.70;;;26.50;68.70;;;;;;6186514;23;20399;-73
2023/04/22 08:44:52;;;;;;;8.73;7.80;;;27.20;68.10;;;;;;6185940;23;20757;-72
2023/04/22 08:47:20;;;;;;;9.20;7.10;;;28.40;66.10;;;;;;6185403;23;20931;-72
2023/04/22 08:49:48;;;;;;;8.93;8.13;;;29.20;63.90;;;;;;6184293;23;20400;-74
2023/04/22 08:52:16;;;;;;;9.37;7.53;;;29.70;62.40;;;;;;6185274;23;20502;-75
2023/04/22 08:54:43;;;;;;;9.10;8.20;;;30.30;60.90;;;;;;6185227;23;20484;-74
2023/04/22 08:57:10;;;;;;;14.53;7.50;;;30.50;60.00;;;;;;6183320;23;20428;-75
2023/04/22 08:59:38;;;;;;;9.60;7.90;;;30.70;58.90;;;;;;6185521;23;20392;-72
2023/04/22 09:02:07;;;;;;;10.30;7.97;;;29.80;59.30;;;;;;6184993;23;20423;-74
2023/04/22 09:04:35;;;;;;;9.23;7.53;;;28.70;60.80;;;;;;6184894;23;20510;-73
2023/04/22 09:07:02;;;;;;;8.50;7.80;;;28.10;62.40;;;;;;6185525;23;20391;-73
2023/04/22 09:09:31;;;;;;;7.63;6.83;;;27.50;63.30;;;;;;6184725;23;20464;-73
2023/04/22 09:11:59;;;;;;;11.43;7.33;;;27.50;63.90;;;;;;6185799;23;20403;-73
2023/04/22 09:14:26;;;;;;;7.20;6.60;;;27.90;63.30;;;;;;6185083;23;20423;-73
2023/04/22 09:16:53;;;;;;;16.13;9.07;;;27.80;63.30;;;;;;6185082;23;20398;-75
2023/04/22 09:19:24;;;;;;;8.40;7.47;;;27.80;63.40;;;;;;6184847;23;21029;-77
2023/04/22 09:21:52;;;;;;;8.47;7.67;;;28.30;63.30;;;;;;6189907;23;20423;-77
2023/04/22 09:24:19;;;;;;;7.37;6.60;;;28.30;62.50;;;;;;6190932;23;20442;-77
2023/04/22 09:26:48;;;;;;;7.67;6.97;;;28.00;62.90;;;;;;6189543;23;20430;-76
2023/04/22 09:29:16;;;;;;;8.20;7.30;;;28.30;62.20;;;;;;6192142;23;20785;-76
2023/04/22 09:31:48;;;;;;;10.63;8.13;;;28.50;62.30;;;;;;6188509;23;20419;-76
2023/04/22 09:34:15;;;;;;;7.60;7.00;;;28.40;62.50;;;;;;6189533;23;20434;-77
2023/04/22 09:36:45;;;;;;;9.67;8.43;;;28.60;61.90;;;;;;6197435;23;20431;-76
2023/04/22 09:39:13;;;;;;;7.10;6.33;;;28.50;62.00;;;;;;6192561;23;20403;-77
2023/04/22 09:41:41;;;;;;;8.47;7.63;;;28.00;63.20;;;;;;6193021;23;20407;-77
2023/04/22 09:44:15;;;;;;;8.10;7.37;;;27.40;64.30;;;;;;6194450;23;20435;-78
2023/04/22 09:46:42;;;;;;;7.70;6.90;;;27.00;64.90;;;;;;6194848;23;20764;-76
2023/04/22 09:49:09;;;;;;;8.50;7.70;;;26.50;65.60;;;;;;6196987;23;20809;-77
2023/04/22 09:51:40;;;;;;;7.73;7.03;;;26.60;65.90;;;;;;6196671;23;20403;-78
2023/04/22 09:54:09;;;;;;;10.53;7.60;;;26.60;66.10;;;;;;6197187;23;20428;-77
2023/04/22 09:56:46;;;;;;;8.40;7.30;;;26.50;66.50;;;;;;6194016;23;20387;-78
2023/04/22 09:59:19;;;;;;;10.13;6.70;;;26.40;66.40;;;;;;6197221;23;20419;-77
2023/04/22 10:01:46;;;;;;;7.17;6.47;;;26.50;65.90;;;;;;6195831;23;20393;-76
2023/04/22 10:04:15;;;;;;;6.20;5.60;;;26.40;66.10;;;;;;6194143;23;20562;-78
2023/04/22 10:06:43;;;;;;;7.37;6.77;;;26.70;66.00;;;;;;6194329;23;20477;-78
2023/04/22 10:09:11;;;;;;;10.17;7.10;;;26.40;66.40;;;;;;6193127;23;20411;-77
2023/04/22 10:11:39;;;;;;;7.17;6.47;;;26.30;66.60;;;;;;6193941;23;20480;-79
2023/04/22 10:14:09;;;;;;;7.40;6.57;;;26.30;66.10;;;;;;6191806;23;20739;-77
2023/04/22 10:16:39;;;;;;;7.50;6.80;;;26.50;66.20;;;;;;6192789;23;20422;-78
2023/04/22 10:19:09;;;;;;;6.93;6.10;;;26.70;65.90;;;;;;6193047;23;20427;-78
2023/04/22 10:21:36;;;;;;;7.53;6.00;;;26.60;65.70;;;;;;6192453;23;20407;-78
2023/04/22 10:24:04;;;;;;;7.50;6.13;;;26.50;65.60;;;;;;6196383;23;20742;-78
2023/04/22 10:26:47;;;;;;;8.43;6.53;;;26.60;66.20;;;;;;6197913;23;20419;-76
2023/04/22 10:29:16;;;;;;;9.70;6.00;;;26.40;67.40;;;;;;6197292;23;20407;-77
2023/04/22 10:31:45;;;;;;;7.00;6.07;;;26.50;67.50;;;;;;6196782;23;20439;-76
2023/04/22 10:34:14;;;;;;;9.23;5.70;;;26.40;66.60;;;;;;6199661;23;20407;-77
2023/04/22 10:37:00;;;;;;;8.60;5.70;;;26.40;67.10;;;;;;6201427;23;20407;-76
2023/04/22 10:39:28;;;;;;;6.90;5.80;;;26.00;66.90;;;;;;6202890;23;20457;-75
2023/04/22 10:42:11;;;;;;;6.80;5.80;;;25.70;67.80;;;;;;6202643;23;20407;-77
2023/04/22 10:44:53;;;;;;;5.80;5.07;;;25.20;69.00;;;;;;6202125;23;20527;-78
2023/04/22 10:47:26;;;;;;;9.50;5.50;;;24.90;70.30;;;;;;6199798;23;20438;-78
2023/04/22 10:50:09;;;;;;;5.73;5.20;;;24.20;71.10;;;;;;6199742;23;20403;-77
2023/04/22 10:52:36;;;;;;;6.77;5.47;;;24.20;72.10;;;;;;6201465;23;20399;-78
2023/04/22 10:55:03;;;;;;;5.60;4.87;;;24.30;71.90;;;;;;6203094;23;20875;-78
2023/04/22 10:57:40;;;;;;;10.13;5.10;;;24.40;71.80;;;;;;6203166;23;20442;-77
2023/04/22 11:00:40;;;;;;;4.80;4.30;;;24.80;71.20;;;;;;6202158;23;20419;-77
2023/04/22 11:03:26;;;;;;;8.10;4.30;;;24.80;70.70;;;;;;6204617;23;20454;-77
2023/04/22 11:06:14;;;;;;;5.33;4.87;;;25.00;70.70;;;;;;6201150;23;20392;-77
2023/04/22 11:08:46;;;;;;;5.23;4.73;;;25.00;70.50;;;;;;6202300;23;20442;-76
2023/04/22 11:11:13;;;;;;;5.90;4.50;;;25.00;70.60;;;;;;6200872;23;20415;-78
2023/04/22 11:13:42;;;;;;;4.90;3.63;;;25.00;71.20;;;;;;6198811;23;20875;-78
2023/04/22 11:16:09;;;;;;;4.07;3.73;;;25.00;71.40;;;;;;6200242;23;20449;-78
2023/04/22 11:18:47;;;;;;;8.23;4.70;;;25.10;70.60;;;;;;6198528;23;20455;-79
2023/04/22 11:21:14;;;;;;;9.30;4.93;;;25.20;70.40;;;;;;6198877;23;20407;-78
2023/04/22 11:23:50;;;;;;;5.10;4.23;;;25.30;70.30;;;;;;6198660;23;20462;-80
2023/04/22 11:26:17;;;;;;;4.20;3.70;;;25.10;70.60;;;;;;6198331;23;20403;-79
2023/04/22 11:28:46;;;;;;;4.57;3.13;;;24.40;69.30;;;;;;6198319;23;20431;-78
2023/04/22 11:31:13;;;;;;;3.80;3.50;;;24.40;70.60;;;;;;6198390;23;20392;-79
2023/04/22 11:33:42;;;;;;;5.10;3.60;;;24.30;71.10;;;;;;6199968;23;20416;-79
2023/04/22 11:36:11;;;;;;;8.60;5.47;;;24.00;70.70;;;;;;6198624;23;20415;-77
2023/04/22 11:38:37;;;;;;;5.30;4.40;;;24.00;71.70;;;;;;6198571;23;20462;-77
2023/04/22 11:41:05;;;;;;;6.23;3.83;;;23.80;71.90;;;;;;6196706;23;20454;-79
2023/04/22 11:43:31;;;;;;;5.50;3.53;;;23.80;72.60;;;;;;6197807;23;20813;-77
2023/04/22 11:45:58;;;;;;;4.23;3.83;;;23.80;71.50;;;;;;6211538;23;20406;-77
2023/04/22 11:48:25;;;;;;;4.20;3.60;;;23.70;72.00;;;;;;6204189;23;20439;-78
2023/04/22 11:51:08;;;;;;;4.43;4.00;;;24.00;72.30;;;;;;6197630;23;20487;-79
2023/04/22 11:53:37;;;;;;;6.17;3.47;;;24.00;71.10;;;;;;6199677;23;20392;-79
2023/04/22 11:56:04;;;;;;;4.10;3.33;;;24.10;71.30;;;;;;6198149;23;20466;-78
2023/04/22 11:58:31;;;;;;;4.13;3.60;;;24.20;71.70;;;;;;6200056;23;20449;-78
2023/04/22 12:01:00;;;;;;;6.03;3.57;;;24.00;70.80;;;;;;6199761;23;20408;-80
2023/04/22 12:03:30;;;;;;;4.67;3.43;;;24.10;70.60;;;;;;6200545;23;20453;-83
2023/04/22 12:06:00;;;;;;;4.00;2.70;;;24.30;70.50;;;;;;6199711;23;20411;-79
2023/04/22 12:08:35;;;;;;;4.80;3.73;;;24.50;70.60;;;;;;6200641;23;20423;-77
2023/04/22 12:11:04;;;;;;;4.60;3.50;;;24.70;70.30;;;;;;6200721;23;20398;-78
2023/04/22 12:13:40;;;;;;;5.87;3.50;;;24.90;70.50;;;;;;6201194;23;20414;-78
2023/04/22 12:16:12;;;;;;;4.47;4.07;;;24.70;71.10;;;;;;6210690;23;20403;-78
2023/04/22 12:18:40;;;;;;;3.60;3.23;;;24.70;71.90;;;;;;6210626;23;20450;-77
2023/04/22 12:21:11;;;;;;;8.57;3.47;;;24.50;72.00;;;;;;6212346;23;20403;-81
2023/04/22 12:23:42;;;;;;;4.30;3.17;;;24.20;72.10;;;;;;6212404;23;20510;-82
2023/04/22 12:26:09;;;;;;;4.63;3.73;;;24.20;72.00;;;;;;6212838;23;20462;-82
2023/04/22 12:28:38;;;;;;;4.80;4.30;;;24.20;72.60;;;;;;6212935;23;20463;-77
2023/04/22 12:31:05;;;;;;;4.80;4.10;;;24.00;72.20;;;;;;6212439;23;20396;-78
2023/04/22 12:33:32;;;;;;;3.60;3.23;;;24.00;72.90;;;;;;6213328;23;20483;-78
2023/04/22 12:35:59;;;;;;;3.73;3.33;;;24.00;72.60;;;;;;6213536;23;20471;-81
2023/04/22 12:38:27;;;;;;;4.37;3.97;;;24.00;72.60;;;;;;6213055;23;20416;-78
2023/04/22 12:40:55;;;;;;;5.10;3.60;;;24.10;72.80;;;;;;6213370;23;20438;-77
2023/04/22 12:43:22;;;;;;;5.70;3.83;;;24.00;71.60;;;;;;6212797;23;20451;-78